sensor_id;sensor_type;location;lat;lon;timestamp;P1;durP1;ratioP1;P2;durP2;ratioP2
1054;SDS011;516;51.482;7.120;2023-11-21T00:02:22;28.70;;;17.73;;
1054;SDS011;516;51.482;7.120;2023-11-21T00:04:48;29.70;;;19.40;;
1054;SDS011;516;51.482;7.120;2023-11-21T00:07:14;30.73;;;17.93;;
1054;SDS011;516;51.482;7.120;2023-11-21T00:09:41;35.30;;;17.87;;
1054;SDS011;516;51.482;7.120;2023-11-21T00:12:08;29.00;;;16.93;;
1054;SDS011;516;51.482;7.120;2023-11-21T00:14:37;27.77;;;16.00;;
1054;SDS011;516;51.482;7.120;2023-11-21T00:17:05;24.60;;;15.40;;
1054;SDS011;516;51.482;7.120;2023-11-21T00:19:39;25.23;;;16.47;;
1054;SDS011;516;51.482;7.120;2023-11-21T00:22:14;26.77;;;17.53;;
1054;SDS011;516;51.482;7.120;2023-11-21T00:24:41;26.20;;;15.47;;
1054;SDS011;516;51.482;7.120;2023-11-21T00:27:07;24.13;;;15.13;;
1054;SDS011;516;51.482;7.120;2023-11-21T00:29:34;21.67;;;14.10;;
1054;SDS011;516;51.482;7.120;2023-11-21T00:32:06;24.13;;;15.00;;
1054;SDS011;516;51.482;7.120;2023-11-21T00:34:32;22.30;;;16.20;;
1054;SDS011;516;51.482;7.120;2023-11-21T00:37:01;23.20;;;15.77;;
1054;SDS011;516;51.482;7.120;2023-11-21T00:39:27;20.03;;;14.73;;
1054;SDS011;516;51.482;7.120;2023-11-21T00:42:04;20.93;;;13.87;;
1054;SDS011;516;51.482;7.120;2023-11-21T00:44:31;21.50;;;14.23;;
1054;SDS011;516;51.482;7.120;2023-11-21T00:46:57;25.50;;;15.03;;
1054;SDS011;516;51.482;7.120;2023-11-21T00:51:54;28.17;;;13.23;;
1054;SDS011;516;51.482;7.120;2023-11-21T00:54:22;20.03;;;13.20;;
1054;SDS011;516;51.482;7.120;2023-11-21T00:56:49;26.53;;;13.90;;
1054;SDS011;516;51.482;7.120;2023-11-21T00:59:15;18.67;;;12.73;;
1054;SDS011;516;51.482;7.120;2023-11-21T01:01:43;27.80;;;14.30;;
1054;SDS011;516;51.482;7.120;2023-11-21T01:04:09;21.10;;;13.00;;
1054;SDS011;516;51.482;7.120;2023-11-21T01:06:35;19.43;;;12.47;;
1054;SDS011;516;51.482;7.120;2023-11-21T01:09:03;19.37;;;12.37;;
1054;SDS011;516;51.482;7.120;2023-11-21T01:11:34;24.70;;;14.03;;
1054;SDS011;516;51.482;7.120;2023-11-21T01:14:01;20.70;;;13.07;;
1054;SDS011;516;51.482;7.120;2023-11-21T01:16:28;20.07;;;12.87;;
1054;SDS011;516;51.482;7.120;2023-11-21T01:18:54;29.83;;;14.00;;
1054;SDS011;516;51.482;7.120;2023-11-21T01:21:20;21.70;;;12.93;;
1054;SDS011;516;51.482;7.120;2023-11-21T01:23:47;23.37;;;14.03;;
1054;SDS011;516;51.482;7.120;2023-11-21T01:26:14;31.33;;;15.30;;
1054;SDS011;516;51.482;7.120;2023-11-21T01:28:41;26.73;;;14.00;;
1054;SDS011;516;51.482;7.120;2023-11-21T01:31:08;17.67;;;11.80;;
1054;SDS011;516;51.482;7.120;2023-11-21T01:33:34;25.30;;;13.43;;
1054;SDS011;516;51.482;7.120;2023-11-21T01:36:00;20.40;;;12.30;;
1054;SDS011;516;51.482;7.120;2023-11-21T01:38:27;21.40;;;11.73;;
1054;SDS011;516;51.482;7.120;2023-11-21T01:40:55;20.00;;;12.23;;
1054;SDS011;516;51.482;7.120;2023-11-21T01:43:21;27.43;;;12.60;;
1054;SDS011;516;51.482;7.120;2023-11-21T01:45:47;27.17;;;13.77;;
1054;SDS011;516;51.482;7.120;2023-11-21T01:48:13;20.30;;;12.60;;
1054;SDS011;516;51.482;7.120;2023-11-21T01:50:41;18.80;;;12.90;;
1054;SDS011;516;51.482;7.120;2023-11-21T01:53:07;21.00;;;11.97;;
1054;SDS011;516;51.482;7.120;2023-11-21T01:55:34;26.60;;;13.57;;
1054;SDS011;516;51.482;7.120;2023-11-21T01:58:00;24.73;;;13.40;;
1054;SDS011;516;51.482;7.120;2023-11-21T02:00:26;23.37;;;13.60;;
1054;SDS011;516;51.482;7.120;2023-11-21T02:02:53;26.80;;;12.73;;
1054;SDS011;516;51.482;7.120;2023-11-21T02:05:19;26.00;;;14.17;;
1054;SDS011;516;51.482;7.120;2023-11-21T02:07:46;24.53;;;12.93;;
1054;SDS011;516;51.482;7.120;2023-11-21T02:10:17;24.10;;;12.60;;
1054;SDS011;516;51.482;7.120;2023-11-21T02:12:48;23.00;;;14.83;;
1054;SDS011;516;51.482;7.120;2023-11-21T02:15:19;21.10;;;12.83;;
1054;SDS011;516;51.482;7.120;2023-11-21T02:17:46;21.73;;;13.20;;
1054;SDS011;516;51.482;7.120;2023-11-21T02:20:16;17.70;;;12.53;;
1054;SDS011;516;51.482;7.120;2023-11-21T02:22:43;15.83;;;12.10;;
1054;SDS011;516;51.482;7.120;2023-11-21T02:25:09;23.43;;;14.03;;
1054;SDS011;516;51.482;7.120;2023-11-21T02:27:36;21.53;;;12.90;;
1054;SDS011;516;51.482;7.120;2023-11-21T02:30:02;23.17;;;12.60;;
1054;SDS011;516;51.482;7.120;2023-11-21T02:34:59;21.10;;;12.83;;
1054;SDS011;516;51.482;7.120;2023-11-21T02:37:27;18.83;;;11.97;;
1054;SDS011;516;51.482;7.120;2023-11-21T02:39:54;21.07;;;13.47;;
1054;SDS011;516;51.482;7.120;2023-11-21T02:42:21;23.27;;;13.37;;
1054;SDS011;516;51.482;7.120;2023-11-21T02:44:55;24.27;;;13.37;;
1054;SDS011;516;51.482;7.120;2023-11-21T02:47:22;17.80;;;12.20;;
1054;SDS011;516;51.482;7.120;2023-11-21T02:49:49;27.70;;;12.20;;
1054;SDS011;516;51.482;7.120;2023-11-21T02:52:17;22.40;;;11.33;;
1054;SDS011;516;51.482;7.120;2023-11-21T02:54:44;19.80;;;12.27;;
1054;SDS011;516;51.482;7.120;2023-11-21T02:57:10;19.97;;;12.37;;
1054;SDS011;516;51.482;7.120;2023-11-21T02:59:43;17.10;;;12.17;;
1054;SDS011;516;51.482;7.120;2023-11-21T03:02:10;18.80;;;11.37;;
1054;SDS011;516;51.482;7.120;2023-11-21T03:04:42;28.70;;;11.07;;
1054;SDS011;516;51.482;7.120;2023-11-21T03:07:08;16.73;;;11.63;;
1054;SDS011;516;51.482;7.120;2023-11-21T03:09:35;19.07;;;12.60;;
1054;SDS011;516;51.482;7.120;2023-11-21T03:12:01;21.50;;;12.20;;
1054;SDS011;516;51.482;7.120;2023-11-21T03:14:28;20.37;;;10.97;;
1054;SDS011;516;51.482;7.120;2023-11-21T03:17:04;20.47;;;12.20;;
1054;SDS011;516;51.482;7.120;2023-11-21T03:19:32;25.07;;;13.27;;
1054;SDS011;516;51.482;7.120;2023-11-21T03:21:58;20.80;;;13.10;;
1054;SDS011;516;51.482;7.120;2023-11-21T03:24:25;21.27;;;12.67;;
1054;SDS011;516;51.482;7.120;2023-11-21T03:26:51;21.10;;;12.97;;
1054;SDS011;516;51.482;7.120;2023-11-21T03:29:19;25.73;;;13.93;;
1054;SDS011;516;51.482;7.120;2023-11-21T03:31:52;17.00;;;12.20;;
1054;SDS011;516;51.482;7.120;2023-11-21T03:34:25;25.10;;;14.17;;
1054;SDS011;516;51.482;7.120;2023-11-21T03:36:53;18.17;;;13.57;;
1054;SDS011;516;51.482;7.120;2023-11-21T03:39:20;21.17;;;12.07;;
1054;SDS011;516;51.482;7.120;2023-11-21T03:41:47;17.33;;;13.30;;
1054;SDS011;516;51.482;7.120;2023-11-21T03:44:13;20.00;;;13.23;;
1054;SDS011;516;51.482;7.120;2023-11-21T03:46:40;20.63;;;12.90;;
1054;SDS011;516;51.482;7.120;2023-11-21T03:49:06;20.03;;;14.50;;
1054;SDS011;516;51.482;7.120;2023-11-21T03:51:32;20.10;;;11.93;;
1054;SDS011;516;51.482;7.120;2023-11-21T03:53:59;21.33;;;12.83;;
1054;SDS011;516;51.482;7.120;2023-11-21T03:56:25;20.27;;;13.63;;
1054;SDS011;516;51.482;7.120;2023-11-21T03:58:51;23.70;;;14.20;;
1054;SDS011;516;51.482;7.120;2023-11-21T04:01:23;18.13;;;12.17;;
1054;SDS011;516;51.482;7.120;2023-11-21T04:03:50;26.47;;;15.20;;
1054;SDS011;516;51.482;7.120;2023-11-21T04:06:16;18.50;;;11.60;;
1054;SDS011;516;51.482;7.120;2023-11-21T04:08:43;19.60;;;12.20;;
1054;SDS011;516;51.482;7.120;2023-11-21T04:11:10;20.27;;;10.60;;
1054;SDS011;516;51.482;7.120;2023-11-21T04:13:39;20.80;;;13.00;;
1054;SDS011;516;51.482;7.120;2023-11-21T04:16:06;19.73;;;12.90;;
1054;SDS011;516;51.482;7.120;2023-11-21T04:18:33;20.23;;;11.87;;
1054;SDS011;516;51.482;7.120;2023-11-21T04:20:59;25.67;;;13.13;;
1054;SDS011;516;51.482;7.120;2023-11-21T04:23:25;26.13;;;13.17;;
1054;SDS011;516;51.482;7.120;2023-11-21T04:25:51;20.50;;;12.90;;
1054;SDS011;516;51.482;7.120;2023-11-21T04:28:19;21.33;;;12.77;;
1054;SDS011;516;51.482;7.120;2023-11-21T04:30:45;20.70;;;11.97;;
1054;SDS011;516;51.482;7.120;2023-11-21T04:33:11;20.87;;;13.80;;
1054;SDS011;516;51.482;7.120;2023-11-21T04:35:37;24.80;;;12.20;;
1054;SDS011;516;51.482;7.120;2023-11-21T04:38:03;19.57;;;13.60;;
1054;SDS011;516;51.482;7.120;2023-11-21T04:40:29;19.63;;;11.23;;
1054;SDS011;516;51.482;7.120;2023-11-21T04:42:55;19.47;;;11.90;;
1054;SDS011;516;51.482;7.120;2023-11-21T04:45:22;18.40;;;12.13;;
1054;SDS011;516;51.482;7.120;2023-11-21T04:47:48;19.60;;;11.23;;
1054;SDS011;516;51.482;7.120;2023-11-21T04:50:14;20.60;;;12.13;;
1054;SDS011;516;51.482;7.120;2023-11-21T04:52:40;24.13;;;12.43;;
1054;SDS011;516;51.482;7.120;2023-11-21T04:55:06;19.77;;;13.10;;
1054;SDS011;516;51.482;7.120;2023-11-21T04:57:35;27.90;;;13.80;;
1054;SDS011;516;51.482;7.120;2023-11-21T05:00:02;25.13;;;13.00;;
1054;SDS011;516;51.482;7.120;2023-11-21T05:02:31;27.43;;;13.50;;
1054;SDS011;516;51.482;7.120;2023-11-21T05:04:59;23.53;;;13.97;;
1054;SDS011;516;51.482;7.120;2023-11-21T05:07:25;22.83;;;13.83;;
1054;SDS011;516;51.482;7.120;2023-11-21T05:09:54;21.73;;;13.50;;
1054;SDS011;516;51.482;7.120;2023-11-21T05:12:21;15.80;;;12.23;;
1054;SDS011;516;51.482;7.120;2023-11-21T05:14:48;19.53;;;12.60;;
1054;SDS011;516;51.482;7.120;2023-11-21T05:17:14;23.30;;;14.30;;
1054;SDS011;516;51.482;7.120;2023-11-21T05:19:40;24.67;;;14.67;;
1054;SDS011;516;51.482;7.120;2023-11-21T05:22:06;24.50;;;13.10;;
1054;SDS011;516;51.482;7.120;2023-11-21T05:24:33;26.57;;;14.53;;
1054;SDS011;516;51.482;7.120;2023-11-21T05:27:00;22.17;;;13.70;;
1054;SDS011;516;51.482;7.120;2023-11-21T05:29:26;32.10;;;13.57;;
1054;SDS011;516;51.482;7.120;2023-11-21T05:31:52;24.07;;;13.03;;
1054;SDS011;516;51.482;7.120;2023-11-21T05:34:18;24.90;;;13.23;;
1054;SDS011;516;51.482;7.120;2023-11-21T05:36:45;21.17;;;14.57;;
1054;SDS011;516;51.482;7.120;2023-11-21T05:39:11;20.23;;;13.07;;
1054;SDS011;516;51.482;7.120;2023-11-21T05:41:37;27.27;;;13.47;;
1054;SDS011;516;51.482;7.120;2023-11-21T05:44:03;27.53;;;14.67;;
1054;SDS011;516;51.482;7.120;2023-11-21T05:46:30;25.63;;;14.50;;
1054;SDS011;516;51.482;7.120;2023-11-21T05:48:56;29.67;;;13.83;;
1054;SDS011;516;51.482;7.120;2023-11-21T05:51:22;27.00;;;15.60;;
1054;SDS011;516;51.482;7.120;2023-11-21T05:53:48;30.67;;;15.13;;
1054;SDS011;516;51.482;7.120;2023-11-21T05:56:14;25.00;;;14.60;;
1054;SDS011;516;51.482;7.120;2023-11-21T05:58:41;19.27;;;13.73;;
1054;SDS011;516;51.482;7.120;2023-11-21T06:01:07;26.00;;;15.40;;
1054;SDS011;516;51.482;7.120;2023-11-21T06:03:34;22.67;;;14.57;;
1054;SDS011;516;51.482;7.120;2023-11-21T06:06:01;24.80;;;13.30;;
1054;SDS011;516;51.482;7.120;2023-11-21T06:08:27;24.60;;;13.47;;
1054;SDS011;516;51.482;7.120;2023-11-21T06:10:53;22.80;;;12.97;;
1054;SDS011;516;51.482;7.120;2023-11-21T06:13:20;19.03;;;12.57;;
1054;SDS011;516;51.482;7.120;2023-11-21T06:15:49;20.73;;;13.63;;
1054;SDS011;516;51.482;7.120;2023-11-21T06:18:15;27.83;;;13.80;;
1054;SDS011;516;51.482;7.120;2023-11-21T06:20:44;31.20;;;15.07;;
1054;SDS011;516;51.482;7.120;2023-11-21T06:23:10;28.57;;;15.87;;
1054;SDS011;516;51.482;7.120;2023-11-21T06:25:36;27.00;;;17.30;;
1054;SDS011;516;51.482;7.120;2023-11-21T06:28:02;22.50;;;14.23;;
1054;SDS011;516;51.482;7.120;2023-11-21T06:30:28;33.17;;;16.40;;
1054;SDS011;516;51.482;7.120;2023-11-21T06:33:01;25.67;;;15.17;;
1054;SDS011;516;51.482;7.120;2023-11-21T06:35:33;30.00;;;14.87;;
1054;SDS011;516;51.482;7.120;2023-11-21T06:38:00;29.33;;;16.53;;
1054;SDS011;516;51.482;7.120;2023-11-21T06:40:26;21.80;;;15.30;;
1054;SDS011;516;51.482;7.120;2023-11-21T06:42:58;27.60;;;15.57;;
1054;SDS011;516;51.482;7.120;2023-11-21T06:45:24;27.97;;;16.70;;
1054;SDS011;516;51.482;7.120;2023-11-21T06:47:50;26.60;;;16.10;;
1054;SDS011;516;51.482;7.120;2023-11-21T06:50:16;32.03;;;17.07;;
1054;SDS011;516;51.482;7.120;2023-11-21T06:52:42;29.50;;;15.77;;
1054;SDS011;516;51.482;7.120;2023-11-21T06:55:08;31.20;;;16.07;;
1054;SDS011;516;51.482;7.120;2023-11-21T06:57:35;26.87;;;15.40;;
1054;SDS011;516;51.482;7.120;2023-11-21T07:00:01;32.90;;;17.07;;
1054;SDS011;516;51.482;7.120;2023-11-21T07:02:28;24.07;;;15.10;;
1054;SDS011;516;51.482;7.120;2023-11-21T07:04:56;25.00;;;15.30;;
1054;SDS011;516;51.482;7.120;2023-11-21T07:07:23;33.63;;;16.97;;
1054;SDS011;516;51.482;7.120;2023-11-21T07:09:50;30.87;;;16.60;;
1054;SDS011;516;51.482;7.120;2023-11-21T07:12:17;29.13;;;17.60;;
1054;SDS011;516;51.482;7.120;2023-11-21T07:14:43;35.77;;;17.70;;
1054;SDS011;516;51.482;7.120;2023-11-21T07:17:10;26.50;;;17.33;;
1054;SDS011;516;51.482;7.120;2023-11-21T07:19:37;35.03;;;17.33;;
1054;SDS011;516;51.482;7.120;2023-11-21T07:22:03;26.93;;;17.40;;
1054;SDS011;516;51.482;7.120;2023-11-21T07:24:31;24.50;;;16.20;;
1054;SDS011;516;51.482;7.120;2023-11-21T07:26:57;29.53;;;16.30;;
1054;SDS011;516;51.482;7.120;2023-11-21T07:29:24;33.90;;;17.03;;
1054;SDS011;516;51.482;7.120;2023-11-21T07:31:55;26.63;;;15.90;;
1054;SDS011;516;51.482;7.120;2023-11-21T07:34:21;25.77;;;16.10;;
1054;SDS011;516;51.482;7.120;2023-11-21T07:36:47;27.50;;;15.47;;
1054;SDS011;516;51.482;7.120;2023-11-21T07:39:13;32.60;;;15.47;;
1054;SDS011;516;51.482;7.120;2023-11-21T07:41:41;25.27;;;15.27;;
1054;SDS011;516;51.482;7.120;2023-11-21T07:44:14;29.80;;;18.60;;
1054;SDS011;516;51.482;7.120;2023-11-21T07:46:40;34.93;;;16.67;;
1054;SDS011;516;51.482;7.120;2023-11-21T07:49:06;29.90;;;16.60;;
1054;SDS011;516;51.482;7.120;2023-11-21T07:51:32;26.87;;;15.10;;
1054;SDS011;516;51.482;7.120;2023-11-21T07:53:58;36.17;;;17.30;;
1054;SDS011;516;51.482;7.120;2023-11-21T07:56:25;36.87;;;18.10;;
1054;SDS011;516;51.482;7.120;2023-11-21T07:58:52;34.90;;;20.30;;
1054;SDS011;516;51.482;7.120;2023-11-21T08:01:18;34.77;;;18.57;;
1054;SDS011;516;51.482;7.120;2023-11-21T08:03:44;38.47;;;19.97;;
1054;SDS011;516;51.482;7.120;2023-11-21T08:06:10;33.97;;;19.30;;
1054;SDS011;516;51.482;7.120;2023-11-21T08:08:37;46.27;;;19.77;;
1054;SDS011;516;51.482;7.120;2023-11-21T08:11:03;35.13;;;19.83;;
1054;SDS011;516;51.482;7.120;2023-11-21T08:13:29;38.93;;;19.10;;
1054;SDS011;516;51.482;7.120;2023-11-21T08:15:56;38.13;;;19.87;;
1054;SDS011;516;51.482;7.120;2023-11-21T08:18:26;44.07;;;20.63;;
1054;SDS011;516;51.482;7.120;2023-11-21T08:20:52;40.13;;;21.00;;
1054;SDS011;516;51.482;7.120;2023-11-21T08:23:21;34.80;;;20.00;;
1054;SDS011;516;51.482;7.120;2023-11-21T08:25:51;36.07;;;21.30;;
1054;SDS011;516;51.482;7.120;2023-11-21T08:28:17;42.27;;;21.47;;
1054;SDS011;516;51.482;7.120;2023-11-21T08:30:43;35.03;;;19.80;;
1054;SDS011;516;51.482;7.120;2023-11-21T08:33:10;30.27;;;17.90;;
1054;SDS011;516;51.482;7.120;2023-11-21T08:35:38;36.60;;;20.50;;
1054;SDS011;516;51.482;7.120;2023-11-21T08:38:05;45.27;;;25.73;;
1054;SDS011;516;51.482;7.120;2023-11-21T08:40:34;55.33;;;27.43;;
1054;SDS011;516;51.482;7.120;2023-11-21T08:43:02;59.13;;;29.40;;
1054;SDS011;516;51.482;7.120;2023-11-21T08:45:35;76.33;;;34.37;;
1054;SDS011;516;51.482;7.120;2023-11-21T08:48:03;86.33;;;37.50;;
1054;SDS011;516;51.482;7.120;2023-11-21T08:50:39;91.63;;;37.87;;
1054;SDS011;516;51.482;7.120;2023-11-21T08:53:06;76.40;;;37.33;;
1054;SDS011;516;51.482;7.120;2023-11-21T08:55:38;85.77;;;37.97;;
1054;SDS011;516;51.482;7.120;2023-11-21T08:58:04;85.97;;;38.57;;
1054;SDS011;516;51.482;7.120;2023-11-21T09:00:31;81.80;;;37.60;;
1054;SDS011;516;51.482;7.120;2023-11-21T09:03:15;93.73;;;41.50;;
1054;SDS011;516;51.482;7.120;2023-11-21T09:05:41;93.67;;;39.47;;
1054;SDS011;516;51.482;7.120;2023-11-21T09:10:58;87.80;;;37.40;;
1054;SDS011;516;51.482;7.120;2023-11-21T09:13:24;91.73;;;37.60;;
1054;SDS011;516;51.482;7.120;2023-11-21T09:15:50;94.80;;;41.20;;
1054;SDS011;516;51.482;7.120;2023-11-21T09:18:16;94.97;;;37.47;;
1054;SDS011;516;51.482;7.120;2023-11-21T09:20:43;87.07;;;37.17;;
1054;SDS011;516;51.482;7.120;2023-11-21T09:23:09;89.60;;;36.77;;
1054;SDS011;516;51.482;7.120;2023-11-21T09:25:35;86.80;;;38.13;;
1054;SDS011;516;51.482;7.120;2023-11-21T09:28:03;88.10;;;37.53;;
1054;SDS011;516;51.482;7.120;2023-11-21T09:30:34;104.63;;;38.30;;
1054;SDS011;516;51.482;7.120;2023-11-21T09:33:01;83.77;;;40.33;;
1054;SDS011;516;51.482;7.120;2023-11-21T09:35:27;96.37;;;40.40;;
1054;SDS011;516;51.482;7.120;2023-11-21T09:37:53;94.53;;;41.73;;
1054;SDS011;516;51.482;7.120;2023-11-21T09:40:21;110.40;;;40.00;;
1054;SDS011;516;51.482;7.120;2023-11-21T09:42:49;90.07;;;39.73;;
1054;SDS011;516;51.482;7.120;2023-11-21T09:45:28;101.80;;;42.33;;
1054;SDS011;516;51.482;7.120;2023-11-21T09:47:56;90.50;;;37.60;;
1054;SDS011;516;51.482;7.120;2023-11-21T09:50:22;83.27;;;36.83;;
1054;SDS011;516;51.482;7.120;2023-11-21T09:52:54;81.73;;;38.63;;
1054;SDS011;516;51.482;7.120;2023-11-21T09:55:22;87.37;;;36.33;;
1054;SDS011;516;51.482;7.120;2023-11-21T09:57:52;97.63;;;40.53;;
1054;SDS011;516;51.482;7.120;2023-11-21T10:00:20;102.53;;;37.67;;
1054;SDS011;516;51.482;7.120;2023-11-21T10:02:48;113.83;;;40.63;;
1054;SDS011;516;51.482;7.120;2023-11-21T10:05:15;90.03;;;34.33;;
1054;SDS011;516;51.482;7.120;2023-11-21T10:07:43;89.30;;;36.80;;
1054;SDS011;516;51.482;7.120;2023-11-21T10:10:10;89.17;;;36.27;;
1054;SDS011;516;51.482;7.120;2023-11-21T10:12:36;85.33;;;37.43;;
1054;SDS011;516;51.482;7.120;2023-11-21T10:15:03;87.77;;;38.07;;
1054;SDS011;516;51.482;7.120;2023-11-21T10:17:35;92.47;;;36.93;;
1054;SDS011;516;51.482;7.120;2023-11-21T10:20:08;80.13;;;34.60;;
1054;SDS011;516;51.482;7.120;2023-11-21T10:22:38;87.33;;;34.90;;
1054;SDS011;516;51.482;7.120;2023-11-21T10:25:06;79.73;;;37.60;;
1054;SDS011;516;51.482;7.120;2023-11-21T10:27:33;73.43;;;36.47;;
1054;SDS011;516;51.482;7.120;2023-11-21T10:30:02;79.90;;;34.87;;
1054;SDS011;516;51.482;7.120;2023-11-21T10:32:29;70.40;;;34.53;;
1054;SDS011;516;51.482;7.120;2023-11-21T10:35:01;66.77;;;32.60;;
1054;SDS011;516;51.482;7.120;2023-11-21T10:37:35;73.60;;;34.27;;
1054;SDS011;516;51.482;7.120;2023-11-21T10:40:04;68.03;;;32.13;;
1054;SDS011;516;51.482;7.120;2023-11-21T10:42:31;83.67;;;34.93;;
1054;SDS011;516;51.482;7.120;2023-11-21T10:44:57;90.37;;;36.13;;
1054;SDS011;516;51.482;7.120;2023-11-21T10:47:23;77.33;;;34.10;;
1054;SDS011;516;51.482;7.120;2023-11-21T10:49:51;69.63;;;34.00;;
1054;SDS011;516;51.482;7.120;2023-11-21T10:52:20;90.47;;;36.23;;
1054;SDS011;516;51.482;7.120;2023-11-21T10:54:46;86.97;;;35.80;;
1054;SDS011;516;51.482;7.120;2023-11-21T10:57:13;73.33;;;35.23;;
1054;SDS011;516;51.482;7.120;2023-11-21T10:59:42;79.37;;;34.87;;
1054;SDS011;516;51.482;7.120;2023-11-21T11:02:31;73.03;;;33.20;;
1054;SDS011;516;51.482;7.120;2023-11-21T11:04:58;70.33;;;32.33;;
1054;SDS011;516;51.482;7.120;2023-11-21T11:07:26;68.53;;;33.40;;
1054;SDS011;516;51.482;7.120;2023-11-21T11:09:55;69.10;;;34.00;;
1054;SDS011;516;51.482;7.120;2023-11-21T11:12:21;65.90;;;31.00;;
1054;SDS011;516;51.482;7.120;2023-11-21T11:14:48;76.73;;;31.30;;
1054;SDS011;516;51.482;7.120;2023-11-21T11:17:14;70.47;;;33.10;;
1054;SDS011;516;51.482;7.120;2023-11-21T11:19:41;62.40;;;31.27;;
1054;SDS011;516;51.482;7.120;2023-11-21T11:22:29;60.40;;;31.13;;
1054;SDS011;516;51.482;7.120;2023-11-21T11:24:58;52.27;;;30.50;;
1054;SDS011;516;51.482;7.120;2023-11-21T11:27:43;51.03;;;27.10;;
1054;SDS011;516;51.482;7.120;2023-11-21T11:37:58;48.33;;;27.90;;
1054;SDS011;516;51.482;7.120;2023-11-21T11:40:26;56.37;;;31.10;;
1054;SDS011;516;51.482;7.120;2023-11-21T11:43:05;47.80;;;25.43;;
1054;SDS011;516;51.482;7.120;2023-11-21T11:45:33;50.20;;;25.50;;
1054;SDS011;516;51.482;7.120;2023-11-21T11:48:01;50.07;;;30.37;;
1054;SDS011;516;51.482;7.120;2023-11-21T11:50:28;49.53;;;27.33;;
1054;SDS011;516;51.482;7.120;2023-11-21T11:52:55;60.33;;;33.30;;
1054;SDS011;516;51.482;7.120;2023-11-21T11:55:22;53.33;;;31.07;;
1054;SDS011;516;51.482;7.120;2023-11-21T11:57:50;57.70;;;31.83;;
1054;SDS011;516;51.482;7.120;2023-11-21T12:00:17;46.37;;;28.67;;
1054;SDS011;516;51.482;7.120;2023-11-21T12:02:55;56.97;;;28.63;;
1054;SDS011;516;51.482;7.120;2023-11-21T12:05:28;52.87;;;31.40;;
1054;SDS011;516;51.482;7.120;2023-11-21T12:07:55;43.77;;;30.57;;
1054;SDS011;516;51.482;7.120;2023-11-21T12:10:23;51.57;;;30.67;;
1054;SDS011;516;51.482;7.120;2023-11-21T12:15:28;44.17;;;29.10;;
1054;SDS011;516;51.482;7.120;2023-11-21T12:17:56;37.57;;;24.20;;
1054;SDS011;516;51.482;7.120;2023-11-21T12:20:22;39.27;;;25.20;;
1054;SDS011;516;51.482;7.120;2023-11-21T12:22:49;38.80;;;19.90;;
1054;SDS011;516;51.482;7.120;2023-11-21T12:25:34;31.17;;;20.93;;
1054;SDS011;516;51.482;7.120;2023-11-21T12:28:01;29.00;;;18.63;;
1054;SDS011;516;51.482;7.120;2023-11-21T12:30:34;32.00;;;19.50;;
1054;SDS011;516;51.482;7.120;2023-11-21T12:35:32;41.93;;;20.53;;
1054;SDS011;516;51.482;7.120;2023-11-21T12:38:04;27.87;;;19.00;;
1054;SDS011;516;51.482;7.120;2023-11-21T12:40:30;32.90;;;21.23;;
1054;SDS011;516;51.482;7.120;2023-11-21T12:42:59;39.03;;;20.17;;
1054;SDS011;516;51.482;7.120;2023-11-21T12:45:36;31.53;;;20.30;;
1054;SDS011;516;51.482;7.120;2023-11-21T12:48:05;32.53;;;20.13;;
1054;SDS011;516;51.482;7.120;2023-11-21T12:50:38;32.10;;;20.27;;
1054;SDS011;516;51.482;7.120;2023-11-21T12:53:13;26.10;;;18.50;;
1054;SDS011;516;51.482;7.120;2023-11-21T12:55:43;28.57;;;18.40;;
1054;SDS011;516;51.482;7.120;2023-11-21T12:58:15;31.00;;;19.40;;
1054;SDS011;516;51.482;7.120;2023-11-21T13:00:49;32.63;;;17.70;;
1054;SDS011;516;51.482;7.120;2023-11-21T13:03:16;26.70;;;18.20;;
1054;SDS011;516;51.482;7.120;2023-11-21T13:05:48;29.93;;;17.80;;
1054;SDS011;516;51.482;7.120;2023-11-21T13:08:16;27.80;;;17.73;;
1054;SDS011;516;51.482;7.120;2023-11-21T13:10:50;28.00;;;18.63;;
1054;SDS011;516;51.482;7.120;2023-11-21T13:18:16;38.63;;;31.33;;
1054;SDS011;516;51.482;7.120;2023-11-21T13:20:42;26.40;;;19.10;;
1054;SDS011;516;51.482;7.120;2023-11-21T13:25:38;27.97;;;16.70;;
1054;SDS011;516;51.482;7.120;2023-11-21T13:28:07;21.93;;;14.10;;
1054;SDS011;516;51.482;7.120;2023-11-21T13:30:44;20.20;;;13.13;;
1054;SDS011;516;51.482;7.120;2023-11-21T13:33:10;21.47;;;13.17;;
1054;SDS011;516;51.482;7.120;2023-11-21T13:35:38;19.70;;;13.13;;
1054;SDS011;516;51.482;7.120;2023-11-21T13:38:11;18.83;;;13.53;;
1054;SDS011;516;51.482;7.120;2023-11-21T13:40:54;20.87;;;13.90;;
1054;SDS011;516;51.482;7.120;2023-11-21T13:43:21;21.50;;;14.33;;
1054;SDS011;516;51.482;7.120;2023-11-21T13:48:29;23.40;;;14.87;;
1054;SDS011;516;51.482;7.120;2023-11-21T13:51:06;18.03;;;13.37;;
1054;SDS011;516;51.482;7.120;2023-11-21T13:53:43;24.07;;;14.97;;
1054;SDS011;516;51.482;7.120;2023-11-21T13:56:12;19.80;;;12.93;;
1054;SDS011;516;51.482;7.120;2023-11-21T13:58:43;19.40;;;12.33;;
1054;SDS011;516;51.482;7.120;2023-11-21T14:01:26;22.17;;;12.43;;
1054;SDS011;516;51.482;7.120;2023-11-21T14:03:56;19.20;;;12.13;;
1054;SDS011;516;51.482;7.120;2023-11-21T14:06:28;20.40;;;14.00;;
1054;SDS011;516;51.482;7.120;2023-11-21T14:09:01;19.87;;;13.40;;
1054;SDS011;516;51.482;7.120;2023-11-21T14:11:32;24.00;;;12.80;;
1054;SDS011;516;51.482;7.120;2023-11-21T14:13:59;20.23;;;13.00;;
1054;SDS011;516;51.482;7.120;2023-11-21T14:16:26;25.27;;;14.60;;
1054;SDS011;516;51.482;7.120;2023-11-21T14:18:53;22.83;;;11.37;;
1054;SDS011;516;51.482;7.120;2023-11-21T14:21:31;15.10;;;10.30;;
1054;SDS011;516;51.482;7.120;2023-11-21T14:23:59;21.70;;;11.13;;
1054;SDS011;516;51.482;7.120;2023-11-21T14:26:25;20.43;;;11.73;;
1054;SDS011;516;51.482;7.120;2023-11-21T14:28:53;18.07;;;12.27;;
1054;SDS011;516;51.482;7.120;2023-11-21T14:31:19;18.93;;;10.20;;
1054;SDS011;516;51.482;7.120;2023-11-21T14:33:45;19.10;;;11.00;;
1054;SDS011;516;51.482;7.120;2023-11-21T14:36:11;17.03;;;10.60;;
1054;SDS011;516;51.482;7.120;2023-11-21T14:38:43;15.60;;;9.53;;
1054;SDS011;516;51.482;7.120;2023-11-21T14:41:09;12.87;;;8.47;;
1054;SDS011;516;51.482;7.120;2023-11-21T14:43:36;14.87;;;9.00;;
1054;SDS011;516;51.482;7.120;2023-11-21T14:46:04;14.37;;;9.30;;
1054;SDS011;516;51.482;7.120;2023-11-21T14:48:34;13.43;;;8.80;;
1054;SDS011;516;51.482;7.120;2023-11-21T14:51:13;14.20;;;8.90;;
1054;SDS011;516;51.482;7.120;2023-11-21T14:53:42;12.53;;;8.90;;
1054;SDS011;516;51.482;7.120;2023-11-21T14:56:18;15.93;;;7.60;;
1054;SDS011;516;51.482;7.120;2023-11-21T14:58:51;15.83;;;7.83;;
1054;SDS011;516;51.482;7.120;2023-11-21T15:01:17;12.97;;;7.77;;
1054;SDS011;516;51.482;7.120;2023-11-21T15:04:00;10.87;;;7.23;;
1054;SDS011;516;51.482;7.120;2023-11-21T15:06:26;11.77;;;7.17;;
1054;SDS011;516;51.482;7.120;2023-11-21T15:08:56;9.77;;;6.60;;
1054;SDS011;516;51.482;7.120;2023-11-21T15:11:33;8.53;;;6.30;;
1054;SDS011;516;51.482;7.120;2023-11-21T15:13:59;9.33;;;5.90;;
1054;SDS011;516;51.482;7.120;2023-11-21T15:16:25;8.70;;;5.70;;
1054;SDS011;516;51.482;7.120;2023-11-21T15:18:52;9.93;;;6.10;;
1054;SDS011;516;51.482;7.120;2023-11-21T15:21:20;11.63;;;6.73;;
1054;SDS011;516;51.482;7.120;2023-11-21T15:23:48;10.00;;;6.60;;
1054;SDS011;516;51.482;7.120;2023-11-21T15:26:14;8.00;;;6.10;;
1054;SDS011;516;51.482;7.120;2023-11-21T15:28:40;9.87;;;6.83;;
1054;SDS011;516;51.482;7.120;2023-11-21T15:31:12;9.10;;;6.90;;
1054;SDS011;516;51.482;7.120;2023-11-21T15:33:43;12.27;;;8.13;;
1054;SDS011;516;51.482;7.120;2023-11-21T15:38:40;7.93;;;6.90;;
1054;SDS011;516;51.482;7.120;2023-11-21T15:43:46;9.50;;;7.00;;
1054;SDS011;516;51.482;7.120;2023-11-21T15:46:16;13.73;;;9.30;;